createdAt,value
2019-01-05T00:07:36.018Z,99.20
2019-01-05T00:10:22.908Z,99.16
2019-01-05T00:13:09.150Z,99.16
2019-01-05T00:15:43.199Z,99.27
2019-01-05T00:18:24.410Z,99.49
2019-01-05T00:21:08.105Z,99.49
2019-01-05T00:23:54.532Z,99.34
2019-01-05T00:26:26.729Z,99.34
2019-01-05T00:29:06.718Z,99.74
2019-01-05T00:31:42.968Z,99.45
2019-01-05T00:34:25.302Z,99.91
2019-01-05T00:37:08.400Z,99.91
2019-01-05T00:39:43.817Z,99.39
2019-01-05T00:42:20.176Z,99.39
2019-01-05T00:44:57.619Z,99.43
2019-01-05T00:47:48.665Z,99.46
2019-01-05T00:50:27.901Z,99.54
2019-01-05T00:56:08.595Z,99.75
2019-01-05T00:58:39.125Z,99.94
2019-01-05T01:01:09.308Z,100.00
2019-01-05T01:03:44.957Z,100.00
2019-01-05T01:06:18.190Z,100.00
2019-01-05T01:08:57.470Z,100.00
2019-01-05T01:11:47.999Z,100.00
2019-01-05T01:14:29.961Z,100.00
2019-01-05T01:17:00.303Z,100.00
2019-01-05T01:19:30.749Z,100.00
2019-01-05T01:22:13.897Z,100.00
2019-01-05T01:24:53.421Z,100.00
2019-01-05T01:27:24.381Z,100.00
2019-01-05T01:29:59.780Z,100.00
2019-01-05T01:32:33.099Z,100.00
2019-01-05T01:38:30.243Z,100.00
2019-01-05T01:41:04.604Z,100.00
2019-01-05T01:43:49.523Z,100.00
2019-01-05T01:46:38.105Z,100.00
2019-01-05T01:49:14.619Z,100.00
2019-01-05T01:52:01.799Z,100.00
2019-01-05T01:54:33.367Z,100.00
2019-01-05T01:57:12.447Z,100.00
2019-01-05T01:59:48.029Z,99.82
2019-01-05T02:02:23.049Z,99.82
2019-01-05T02:05:06.563Z,100.00
2019-01-05T02:07:54.865Z,99.65
2019-01-05T02:10:30.480Z,99.65
2019-01-05T02:13:20.589Z,99.69
2019-01-05T02:15:53.666Z,99.69
2019-01-05T02:18:38.774Z,100.00
2019-01-05T02:21:31.140Z,100.00
2019-01-05T02:24:31.439Z,100.00
2019-01-05T02:27:39.113Z,100.00
2019-01-05T02:30:12.401Z,100.00
2019-01-05T02:33:12.487Z,100.00
2019-01-05T02:36:06.654Z,100.00
2019-01-05T02:39:06.917Z,100.00
2019-01-05T02:41:42.611Z,100.00
2019-01-05T02:44:46.060Z,100.00
2019-01-05T02:50:51.376Z,100.00
2019-01-05T02:53:57.852Z,100.00
2019-01-05T02:56:46.032Z,100.00
2019-01-05T02:59:24.997Z,100.00
2019-01-05T03:02:16.547Z,100.00
2019-01-05T03:04:55.827Z,100.00
2019-01-05T03:08:06.640Z,100.00
2019-01-05T03:10:54.339Z,100.00
2019-01-05T03:13:47.044Z,100.00
2019-01-05T03:16:59.960Z,100.00
2019-01-05T03:19:41.582Z,100.00
2019-01-05T03:22:55.340Z,100.00
2019-01-05T03:25:46.605Z,100.00
2019-01-05T03:28:57.340Z,100.00
2019-01-05T03:32:17.026Z,100.00
2019-01-05T03:35:10.566Z,100.00
2019-01-05T03:38:24.779Z,100.00
2019-01-05T03:41:33.883Z,100.00
2019-01-05T03:44:27.792Z,100.00
2019-01-05T03:47:54.594Z,100.00
2019-01-05T03:50:39.398Z,100.00
2019-01-05T03:53:35.946Z,100.00
2019-01-05T03:59:53.233Z,100.00
2019-01-05T04:02:48.538Z,100.00
2019-01-05T04:05:41.124Z,100.00
2019-01-05T04:08:48.829Z,100.00
2019-01-05T04:15:18.800Z,100.00
2019-01-05T04:18:15.976Z,100.00
2019-01-05T04:21:12.744Z,100.00
2019-01-05T04:24:04.121Z,100.00
2019-01-05T04:27:02.652Z,100.00
2019-01-05T04:30:13.544Z,100.00
2019-01-05T04:36:27.156Z,100.00
2019-01-05T04:39:06.156Z,100.00
2019-01-05T04:42:15.968Z,100.00
2019-01-05T04:45:22.389Z,100.00
2019-01-05T04:48:06.766Z,100.00
2019-01-05T04:50:54.876Z,100.00
2019-01-05T04:57:07.464Z,100.00
2019-01-05T05:03:22.008Z,100.00
2019-01-05T05:06:39.290Z,100.00
2019-01-05T05:09:23.715Z,100.00
2019-01-05T05:12:38.844Z,100.00
2019-01-05T05:15:36.978Z,100.00
2019-01-05T05:18:24.711Z,100.00
2019-01-05T05:21:09.947Z,100.00
2019-01-05T05:24:15.046Z,100.00
2019-01-05T05:27:34.212Z,100.00
2019-01-05T05:30:42.146Z,100.00
2019-01-05T05:33:41.855Z,100.00
2019-01-05T05:36:57.105Z,100.00
2019-01-05T05:39:41.991Z,100.00
2019-01-05T05:42:37.921Z,100.00
2019-01-05T05:45:44.582Z,100.00
2019-01-05T05:48:46.008Z,100.00
2019-01-05T05:52:04.988Z,100.00
2019-01-05T05:55:10.066Z,100.00
2019-01-05T05:58:15.203Z,100.00
2019-01-05T06:01:29.577Z,100.00
2019-01-05T06:04:35.786Z,100.00
2019-01-05T06:07:32.510Z,100.00
2019-01-05T06:10:37.507Z,100.00
2019-01-05T06:13:25.811Z,100.00
2019-01-05T06:16:18.584Z,100.00
2019-01-05T06:19:00.500Z,100.00
2019-01-05T06:22:05.046Z,100.00
2019-01-05T06:24:59.516Z,100.00
2019-01-05T06:28:12.369Z,100.00
2019-01-05T06:31:08.285Z,100.00
2019-01-05T06:34:08.383Z,100.00
2019-01-05T06:37:13.216Z,100.00
2019-01-05T06:40:28.547Z,100.00
2019-01-05T06:43:43.063Z,100.00
2019-01-05T06:46:40.065Z,100.00
2019-01-05T06:49:50.053Z,100.00
2019-01-05T06:52:34.982Z,100.00
2019-01-05T06:55:48.905Z,100.00
2019-01-05T06:58:51.798Z,100.00
2019-01-05T07:01:42.771Z,100.00
2019-01-05T07:04:27.562Z,100.00
2019-01-05T07:07:32.546Z,100.00
2019-01-05T07:10:19.579Z,100.00
2019-01-05T07:13:09.297Z,99.85
2019-01-05T07:16:23.262Z,99.69
2019-01-05T07:19:35.825Z,99.59
2019-01-05T07:22:32.990Z,99.40
2019-01-05T07:31:53.284Z,99.10
2019-01-05T07:34:35.322Z,98.93
2019-01-05T07:37:30.888Z,98.86
2019-01-05T07:40:37.619Z,98.95
2019-01-05T07:43:41.847Z,99.02
2019-01-05T07:46:29.846Z,98.88
2019-01-05T07:49:36.247Z,98.81
2019-01-05T07:52:54.532Z,98.83
2019-01-05T07:56:19.733Z,98.75
2019-01-05T07:59:30.682Z,98.62
2019-01-05T08:02:38.452Z,98.46
2019-01-05T08:05:55.543Z,98.48
2019-01-05T08:08:50.248Z,98.41
2019-01-05T08:11:56.245Z,98.39
2019-01-05T08:15:04.338Z,98.29
2019-01-05T08:18:05.522Z,98.11
2019-01-05T08:21:16.487Z,98.28
2019-01-05T08:24:18.619Z,98.28
2019-01-05T08:27:08.526Z,98.13
2019-01-05T08:30:20.097Z,97.90
2019-01-05T08:33:14.525Z,97.66
2019-01-05T08:36:02.199Z,97.40
2019-01-05T08:39:04.028Z,97.12
2019-01-05T08:42:20.196Z,96.93
2019-01-05T08:45:43.398Z,96.84
2019-01-05T08:48:53.320Z,96.52
2019-01-05T08:52:17.096Z,96.50
2019-01-05T08:55:14.256Z,96.32
2019-01-05T08:58:13.753Z,96.22
2019-01-05T09:01:30.365Z,96.12
2019-01-05T09:04:36.948Z,96.06
2019-01-05T09:07:30.962Z,96.14
2019-01-05T09:10:22.175Z,96.21
2019-01-05T09:13:13.040Z,96.30
2019-01-05T09:16:16.147Z,96.22
2019-01-05T09:19:24.278Z,96.04
2019-01-05T09:22:21.533Z,95.77
2019-01-05T09:25:00.555Z,95.92
2019-01-05T09:28:23.664Z,95.88
2019-01-05T09:31:25.232Z,95.43
2019-01-05T09:34:27.378Z,95.12
2019-01-05T09:37:20.370Z,94.82
2019-01-05T09:40:22.093Z,94.73
2019-01-05T09:43:13.490Z,95.04
2019-01-05T09:46:23.183Z,95.00
2019-01-05T09:49:30.022Z,95.32
2019-01-05T09:52:37.612Z,95.19
2019-01-05T09:55:40.204Z,94.55
2019-01-05T09:58:32.619Z,94.43
2019-01-05T10:01:50.906Z,94.29
2019-01-05T10:04:41.798Z,94.35
2019-01-05T10:07:42.181Z,94.30
2019-01-05T10:10:55.740Z,94.11
2019-01-05T10:14:05.217Z,93.98
2019-01-05T10:16:44.199Z,93.88
2019-01-05T10:19:48.951Z,93.54
2019-01-05T10:25:46.092Z,92.94
2019-01-05T10:28:40.159Z,92.42
2019-01-05T10:32:03.011Z,92.27
2019-01-05T10:35:01.553Z,91.98
2019-01-05T10:38:03.262Z,91.74
2019-01-05T10:40:53.259Z,91.06
2019-01-05T10:44:10.969Z,90.67
2019-01-05T10:46:56.056Z,89.27
2019-01-05T10:49:35.290Z,88.46
2019-01-05T10:52:23.818Z,88.01
2019-01-05T10:55:39.917Z,88.13
2019-01-05T10:58:55.468Z,86.83
2019-01-05T11:01:54.349Z,86.49
2019-01-05T11:04:56.105Z,86.57
2019-01-05T11:08:13.220Z,86.96
2019-01-05T11:11:03.296Z,85.98
2019-01-05T11:14:10.283Z,86.75
2019-01-05T11:16:58.360Z,85.97
2019-01-05T11:19:54.778Z,86.16
2019-01-05T11:22:34.057Z,86.85
2019-01-05T11:25:12.702Z,86.60
2019-01-05T11:28:10.052Z,86.70
2019-01-05T11:31:16.022Z,87.24
2019-01-05T11:34:07.737Z,86.33
2019-01-05T11:37:04.982Z,85.43
2019-01-05T11:40:02.014Z,84.74
2019-01-05T11:42:44.109Z,84.18
2019-01-05T11:45:52.066Z,84.83
2019-01-05T11:48:58.745Z,84.96
2019-01-05T11:52:11.587Z,84.98
2019-01-05T11:55:10.158Z,85.03
2019-01-05T11:58:01.686Z,85.48
2019-01-05T12:00:58.647Z,84.86
2019-01-05T12:03:43.864Z,84.05
2019-01-05T12:06:22.851Z,84.16
2019-01-05T12:09:30.508Z,84.42
2019-01-05T12:12:35.357Z,84.51
2019-01-05T12:15:26.484Z,84.52
2019-01-05T12:18:34.286Z,84.89
2019-01-05T12:24:59.428Z,85.18
2019-01-05T12:27:38.767Z,83.92
2019-01-05T12:30:20.798Z,83.62
2019-01-05T12:33:41.330Z,83.83
2019-01-05T12:36:36.686Z,84.29
2019-01-05T12:39:30.735Z,84.36
2019-01-05T12:42:29.318Z,84.66
2019-01-05T12:45:20.588Z,84.75
2019-01-05T12:48:10.423Z,84.58
2019-01-05T12:51:08.092Z,84.09
2019-01-05T12:54:02.408Z,84.49
2019-01-05T13:00:09.139Z,84.08
2019-01-05T13:03:08.927Z,84.65
2019-01-05T13:06:12.188Z,84.85
2019-01-05T13:09:08.252Z,84.59
2019-01-05T13:12:18.522Z,84.86
2019-01-05T13:15:03.796Z,84.97
2019-01-05T13:18:14.888Z,84.44
2019-01-05T13:21:26.822Z,84.03
2019-01-05T13:24:15.194Z,84.25
2019-01-05T13:27:20.227Z,84.54
2019-01-05T13:30:02.008Z,84.28
2019-01-05T13:32:54.938Z,84.28
2019-01-05T13:35:51.177Z,83.90
2019-01-05T13:38:43.420Z,83.67
2019-01-05T13:41:46.496Z,83.72
2019-01-05T13:44:55.183Z,84.22
2019-01-05T13:47:52.191Z,85.52
2019-01-05T13:50:58.730Z,85.57
2019-01-05T13:53:40.655Z,85.62
2019-01-05T13:56:26.197Z,86.49
2019-01-05T13:59:05.112Z,87.72
2019-01-05T14:01:53.055Z,87.35
2019-01-05T14:04:31.679Z,86.92
2019-01-05T14:07:18.029Z,86.98
2019-01-05T14:10:04.680Z,87.85
2019-01-05T14:12:51.874Z,88.29
2019-01-05T14:15:38.027Z,88.53
2019-01-05T14:18:24.338Z,88.56
2019-01-05T14:20:54.569Z,89.28
2019-01-05T14:23:25.127Z,89.08
2019-01-05T14:25:55.320Z,89.10
2019-01-05T14:28:34.448Z,88.89
2019-01-05T14:31:13.556Z,88.80
2019-01-05T14:33:52.651Z,88.96
2019-01-05T14:36:40.278Z,88.87
2019-01-05T14:39:10.599Z,88.35
2019-01-05T14:41:40.795Z,88.58
2019-01-05T14:44:11.336Z,88.26
2019-01-05T14:46:44.462Z,87.94
2019-01-05T14:49:30.634Z,87.89
2019-01-05T14:52:06.280Z,87.75
2019-01-05T14:54:48.764Z,87.17
2019-01-05T14:57:33.943Z,86.98
2019-01-05T15:00:04.573Z,86.79
2019-01-05T15:02:35.136Z,86.83
2019-01-05T15:05:05.447Z,87.12
2019-01-05T15:07:53.986Z,86.85
2019-01-05T15:10:36.305Z,87.14
2019-01-05T15:13:15.513Z,87.57
2019-01-05T15:15:45.723Z,87.56
2019-01-05T15:18:22.027Z,87.18
2019-01-05T15:21:08.518Z,87.28
2019-01-05T15:23:44.498Z,87.19
2019-01-05T15:26:14.743Z,87.51
2019-01-05T15:29:01.121Z,87.82
2019-01-05T15:31:46.041Z,88.33
2019-01-05T15:34:18.947Z,88.23
2019-01-05T15:36:51.855Z,88.13
2019-01-05T15:39:24.850Z,88.26
2019-01-05T15:42:03.851Z,87.85
2019-01-05T15:44:36.839Z,88.01
2019-01-05T15:47:23.618Z,88.37
2019-01-05T15:50:05.935Z,88.27
2019-01-05T15:52:52.785Z,88.64
2019-01-05T15:55:40.592Z,88.72
2019-01-05T15:58:20.351Z,88.55
2019-01-05T16:00:50.571Z,89.07
2019-01-05T16:03:32.407Z,89.76
2019-01-05T16:06:18.802Z,90.34
2019-01-05T16:08:54.747Z,90.80
2019-01-05T16:11:38.219Z,91.20
2019-01-05T16:14:20.354Z,91.65
2019-01-05T16:17:02.148Z,91.89
2019-01-05T16:19:41.334Z,91.93
2019-01-05T16:22:26.636Z,91.94
2019-01-05T16:24:59.803Z,91.89
2019-01-05T16:27:51.363Z,91.93
2019-01-05T16:30:21.610Z,91.79
2019-01-05T16:33:07.890Z,92.01
2019-01-05T16:35:54.352Z,92.01
2019-01-05T16:38:24.942Z,92.06
2019-01-05T16:40:58.090Z,92.00
2019-01-05T16:43:43.047Z,92.12
2019-01-05T16:46:22.892Z,91.94
2019-01-05T16:48:57.404Z,91.84
2019-01-05T16:51:39.558Z,91.82
2019-01-05T16:57:03.647Z,91.29
2019-01-05T17:02:34.579Z,90.90
2019-01-05T17:05:13.741Z,90.96
2019-01-05T17:08:02.099Z,90.92
2019-01-05T17:10:44.290Z,90.99
2019-01-05T17:13:17.172Z,91.02
2019-01-05T17:21:48.394Z,91.11
2019-01-05T17:24:18.671Z,90.97
2019-01-05T17:27:06.749Z,90.99
2019-01-05T17:29:38.014Z,91.15
2019-01-05T17:32:14.015Z,90.79
2019-01-05T17:34:47.390Z,90.31
2019-01-05T17:37:26.661Z,90.39
2019-01-05T17:39:59.358Z,89.98
2019-01-05T17:42:45.981Z,89.74
2019-01-05T17:45:27.995Z,89.57
2019-01-05T17:48:04.201Z,89.59
2019-01-05T17:50:50.792Z,89.55
2019-01-05T17:53:33.310Z,90.57
2019-01-05T17:56:09.338Z,90.61
2019-01-05T17:58:39.513Z,90.85
2019-01-05T18:01:16.001Z,90.89
2019-01-05T18:04:04.981Z,90.49
2019-01-05T18:06:38.167Z,90.67
2019-01-05T18:09:14.201Z,90.66
2019-01-05T18:11:44.419Z,90.78
2019-01-05T18:14:17.617Z,90.89
2019-01-05T18:16:47.898Z,91.12
2019-01-05T18:19:27.135Z,91.08
2019-01-05T18:22:06.007Z,91.07
2019-01-05T18:24:36.150Z,91.45
2019-01-05T18:27:25.658Z,91.38
2019-01-05T18:29:58.852Z,91.74
2019-01-05T18:32:45.654Z,91.62
2019-01-05T18:35:15.834Z,91.61
2019-01-05T18:38:01.066Z,91.19
2019-01-05T18:40:34.133Z,90.94
2019-01-05T18:43:04.343Z,91.36
2019-01-05T18:45:34.942Z,91.42
2019-01-05T18:48:05.147Z,91.58
2019-01-05T18:50:38.292Z,91.86
2019-01-05T18:53:26.337Z,91.70
2019-01-05T18:56:02.375Z,91.93
2019-01-05T18:58:47.359Z,92.25
2019-01-05T19:01:17.590Z,92.23
2019-01-05T19:03:47.808Z,92.59
2019-01-05T19:06:18.036Z,92.56
2019-01-05T19:11:38.764Z,91.86
2019-01-05T19:14:09.020Z,92.32
2019-01-05T19:16:39.335Z,93.12
2019-01-05T19:19:18.139Z,93.10
2019-01-05T19:21:54.117Z,93.10
2019-01-05T19:24:33.516Z,92.93
2019-01-05T19:27:09.246Z,93.00
2019-01-05T19:29:42.531Z,92.56
2019-01-05T19:32:24.114Z,91.46
2019-01-05T19:35:10.483Z,91.55
2019-01-05T19:37:46.111Z,91.20
2019-01-05T19:40:19.416Z,90.38
2019-01-05T19:43:06.489Z,90.43
2019-01-05T19:45:42.624Z,90.03
2019-01-05T19:48:28.772Z,89.56
2019-01-05T19:50:58.999Z,90.11
2019-01-05T19:53:38.665Z,89.91
2019-01-05T19:56:29.933Z,89.91
2019-01-05T19:59:16.345Z,90.21
2019-01-05T20:02:02.776Z,90.52
2019-01-05T20:04:56.716Z,89.64
2019-01-05T20:07:45.007Z,89.67
2019-01-05T20:10:21.222Z,89.67
2019-01-05T20:13:06.361Z,88.75
2019-01-05T20:15:45.736Z,88.75
2019-01-05T20:18:27.717Z,89.51
2019-01-05T20:21:03.632Z,89.31
2019-01-05T20:23:45.461Z,88.96
2019-01-05T20:26:15.644Z,88.96
2019-01-05T20:29:01.233Z,89.18
2019-01-05T20:31:47.868Z,88.76
2019-01-05T20:34:21.459Z,88.76
2019-01-05T20:37:00.305Z,88.53
2019-01-05T20:39:37.118Z,88.91
2019-01-05T20:42:25.344Z,89.98
2019-01-05T20:44:58.278Z,89.98
2019-01-05T20:47:31.130Z,89.78
2019-01-05T20:50:19.427Z,89.96
2019-01-05T20:52:52.231Z,90.34
2019-01-05T20:55:28.325Z,89.99
2019-01-05T20:58:01.355Z,90.14
2019-01-05T21:00:40.221Z,90.62
2019-01-05T21:03:15.817Z,90.83
2019-01-05T21:06:05.270Z,91.35
2019-01-05T21:08:38.246Z,91.64
2019-01-05T21:11:14.257Z,92.16
2019-01-05T21:13:47.208Z,92.13
2019-01-05T21:16:22.911Z,92.35
2019-01-05T21:19:12.598Z,92.55
2019-01-05T21:21:51.871Z,92.85
2019-01-05T21:24:27.986Z,93.20
2019-01-05T21:27:17.501Z,93.39
2019-01-05T21:32:54.450Z,93.66
2019-01-05T21:35:33.214Z,93.86
2019-01-05T21:38:21.323Z,93.90
2019-01-05T21:40:54.231Z,93.67
2019-01-05T21:43:30.215Z,93.59
2019-01-05T21:46:03.533Z,93.54
2019-01-05T21:48:52.984Z,93.56
2019-01-05T21:51:26.100Z,93.36
2019-01-05T21:54:11.683Z,93.58
2019-01-05T21:57:00.487Z,93.76
2019-01-05T21:59:33.825Z,94.35
2019-01-05T22:02:07.008Z,94.62
2019-01-05T22:04:50.727Z,94.71
2019-01-05T22:07:37.112Z,94.70
2019-01-05T22:13:28.224Z,93.80
2019-01-05T22:16:15.976Z,93.60
2019-01-05T22:19:02.736Z,93.16
2019-01-05T22:21:35.560Z,92.43
2019-01-05T22:27:16.337Z,91.90
2019-01-05T22:30:01.517Z,91.57
2019-01-05T22:32:52.545Z,89.47
2019-01-05T22:35:22.729Z,89.11
2019-01-05T22:38:06.421Z,88.99
2019-01-05T22:40:41.906Z,88.72
2019-01-05T22:43:12.108Z,89.36
2019-01-05T22:48:37.571Z,88.92
2019-01-05T22:51:07.918Z,88.64
2019-01-05T22:53:53.379Z,87.59
2019-01-05T22:56:42.689Z,87.01
2019-01-05T22:59:28.766Z,87.69
2019-01-05T23:01:59.004Z,89.06
2019-01-05T23:04:32.515Z,89.53
2019-01-05T23:07:15.072Z,89.78
2019-01-05T23:12:45.731Z,88.10
2019-01-05T23:15:27.094Z,89.07
2019-01-05T23:18:13.535Z,89.81
2019-01-05T23:20:43.718Z,90.40
2019-01-05T23:23:30.594Z,90.18
2019-01-05T23:26:23.479Z,89.01
2019-01-05T23:29:07.580Z,89.41
2019-01-05T23:31:52.595Z,89.46
2019-01-05T23:34:40.710Z,88.88
2019-01-05T23:37:17.384Z,88.52
2019-01-05T23:39:50.627Z,89.30
2019-01-05T23:42:20.889Z,89.30
2019-01-05T23:45:07.482Z,88.29
2019-01-05T23:53:26.457Z,88.24
2019-01-05T23:58:44.562Z,88.85
